createdAt,value
2018-11-12T00:00:27.818Z,91.772461
2018-11-12T00:03:55.810Z,91.772461
2018-11-12T00:07:24.793Z,91.772461
2018-11-12T00:10:52.790Z,91.870117
2018-11-12T00:14:20.759Z,91.564941
2018-11-12T00:17:48.751Z,91.357422
2018-11-12T00:21:16.742Z,91.357422
2018-11-12T00:24:44.721Z,91.357422
2018-11-12T00:28:12.697Z,91.217041
2018-11-12T00:31:40.684Z,91.217041
2018-11-12T00:35:08.677Z,90.905762
2018-11-12T00:38:36.652Z,91.113281
2018-11-12T00:42:04.640Z,91.113281
2018-11-12T00:45:32.629Z,91.314697
2018-11-12T00:49:07.234Z,91.009521
2018-11-12T00:52:35.210Z,91.217041
2018-11-12T00:56:03.191Z,90.905762
2018-11-12T00:59:31.134Z,91.009521
2018-11-12T01:02:59.100Z,90.905762
2018-11-12T01:06:27.078Z,91.217041
2018-11-12T01:09:55.034Z,91.217041
2018-11-12T01:13:23.994Z,91.009521
2018-11-12T01:16:51.974Z,91.009521
2018-11-12T01:20:19.940Z,91.113281
2018-11-12T01:23:47.891Z,91.113281
2018-11-12T01:27:15.857Z,91.217041
2018-11-12T01:30:43.824Z,91.314697
2018-11-12T01:34:11.796Z,91.522217
2018-11-12T01:37:39.753Z,91.479492
2018-11-12T01:41:08.720Z,91.479492
2018-11-12T01:44:36.677Z,91.375732
2018-11-12T01:48:04.651Z,91.174316
2018-11-12T01:51:32.622Z,91.070557
2018-11-12T01:55:00.591Z,90.722656
2018-11-12T01:58:28.545Z,90.618896
2018-11-12T02:01:56.515Z,90.722656
2018-11-12T02:05:24.486Z,90.618896
2018-11-12T02:08:52.545Z,90.618896
2018-11-12T02:12:21.401Z,90.411377
2018-11-12T02:15:49.372Z,90.270996
2018-11-12T02:19:17.332Z,90.167236
2018-11-12T02:22:45.305Z,90.167236
2018-11-12T02:26:13.271Z,90.209961
2018-11-12T02:29:41.589Z,90.411377
2018-11-12T02:33:09.630Z,90.411377
2018-11-12T02:36:37.522Z,90.411377
2018-11-12T02:40:06.481Z,90.411377
2018-11-12T02:43:34.434Z,90.411377
2018-11-12T02:47:02.401Z,90.411377
2018-11-12T02:50:30.368Z,90.411377
2018-11-12T02:53:58.322Z,90.515137
2018-11-12T02:57:27.293Z,90.618896
2018-11-12T03:00:55.247Z,90.618896
2018-11-12T03:04:23.214Z,90.722656
2018-11-12T03:07:51.163Z,90.765381
2018-11-12T03:11:19.139Z,91.070557
2018-11-12T03:14:47.208Z,91.479492
2018-11-12T03:18:15.157Z,91.479492
2018-11-12T03:21:43.131Z,91.625977
2018-11-12T03:25:11.294Z,91.729736
2018-11-12T03:28:40.235Z,91.827393
2018-11-12T03:32:08.197Z,91.827393
2018-11-12T03:35:36.165Z,91.827393
2018-11-12T03:39:04.120Z,92.034912
2018-11-12T03:42:32.095Z,92.034912
2018-11-12T03:46:00.064Z,92.236328
2018-11-12T03:49:28.016Z,92.340088
2018-11-12T03:53:03.007Z,92.443848
2018-11-12T03:56:30.971Z,92.236328
2018-11-12T03:59:59.991Z,92.236328
2018-11-12T04:03:27.875Z,92.340088
2018-11-12T04:06:55.848Z,92.297363
2018-11-12T04:10:23.826Z,92.193604
2018-11-12T04:13:51.780Z,92.193604
2018-11-12T04:17:19.748Z,92.193604
2018-11-12T04:20:47.718Z,92.095947
2018-11-12T04:24:15.671Z,92.095947
2018-11-12T04:27:43.638Z,92.095947
2018-11-12T04:31:11.609Z,92.193604
2018-11-12T04:34:39.566Z,92.297363
2018-11-12T04:38:07.531Z,92.297363
2018-11-12T04:41:35.496Z,92.401123
2018-11-12T04:45:03.462Z,92.443848
2018-11-12T04:48:31.433Z,92.547607
2018-11-12T04:51:59.441Z,92.645264
2018-11-12T04:55:28.468Z,92.547607
2018-11-12T04:58:57.336Z,92.547607
2018-11-12T05:02:25.298Z,92.547607
2018-11-12T05:05:54.253Z,92.547607
2018-11-12T05:09:22.206Z,92.443848
2018-11-12T05:12:50.175Z,92.443848
2018-11-12T05:16:19.139Z,92.443848
2018-11-12T05:19:47.113Z,92.547607
2018-11-12T05:23:15.056Z,92.645264
2018-11-12T05:26:44.023Z,92.547607
2018-11-12T05:30:11.971Z,92.547607
2018-11-12T05:33:39.954Z,92.645264
2018-11-12T05:37:08.917Z,92.547607
2018-11-12T05:40:36.884Z,92.443848
2018-11-12T05:44:04.844Z,92.547607
2018-11-12T05:47:32.801Z,92.547607
2018-11-12T05:51:00.773Z,92.443848
2018-11-12T05:54:28.729Z,92.547607
2018-11-12T05:57:56.698Z,92.547607
2018-11-12T06:01:24.673Z,92.749023
2018-11-12T06:04:52.656Z,92.852783
2018-11-12T06:08:20.588Z,92.749023
2018-11-12T06:11:48.556Z,92.749023
2018-11-12T06:15:16.512Z,92.749023
2018-11-12T06:18:44.461Z,92.852783
2018-11-12T06:22:13.428Z,92.852783
2018-11-12T06:25:41.390Z,92.852783
2018-11-12T06:29:09.356Z,92.852783
2018-11-12T06:32:38.318Z,92.852783
2018-11-12T06:36:06.344Z,92.956543
2018-11-12T06:39:34.257Z,92.852783
2018-11-12T06:43:02.295Z,92.956543
2018-11-12T06:46:30.184Z,92.749023
2018-11-12T06:49:58.151Z,92.706299
2018-11-12T06:53:26.141Z,92.706299
2018-11-12T06:56:54.063Z,92.602539
2018-11-12T07:00:22.033Z,92.504883
2018-11-12T07:03:50.181Z,92.401123
2018-11-12T07:07:18.138Z,92.193604
2018-11-12T07:10:46.113Z,92.095947
2018-11-12T07:14:14.192Z,92.095947
2018-11-12T07:17:42.156Z,91.992188
2018-11-12T07:21:11.113Z,91.992188
2018-11-12T07:24:39.094Z,91.845703
2018-11-12T07:28:07.044Z,91.540527
2018-11-12T07:31:35.021Z,91.131592
2018-11-12T07:35:02.990Z,91.131592
2018-11-12T07:38:30.943Z,91.131592
2018-11-12T07:41:58.935Z,91.131592
2018-11-12T07:45:27.875Z,91.131592
2018-11-12T07:48:55.930Z,91.131592
2018-11-12T07:52:23.805Z,91.027832
2018-11-12T07:55:51.778Z,91.131592
2018-11-12T07:59:19.736Z,91.131592
2018-11-12T08:02:47.768Z,91.027832
2018-11-12T08:06:15.863Z,91.088867
2018-11-12T08:09:43.876Z,91.088867
2018-11-12T08:13:11.804Z,90.881348
2018-11-12T08:16:39.772Z,90.783691
2018-11-12T08:20:07.732Z,90.374756
2018-11-12T08:23:35.700Z,90.270996
2018-11-12T08:27:04.671Z,90.167236
2018-11-12T08:30:32.721Z,90.374756
2018-11-12T08:34:00.596Z,90.374756
2018-11-12T08:37:28.572Z,90.332031
2018-11-12T08:40:56.590Z,90.270996
2018-11-12T08:44:24.502Z,90.124512
2018-11-12T08:47:52.467Z,90.228271
2018-11-12T08:51:20.437Z,89.923096
2018-11-12T08:54:48.433Z,90.020752
2018-11-12T08:58:17.199Z,90.124512
2018-11-12T09:01:45.324Z,89.923096
2018-11-12T09:05:13.274Z,89.715576
2018-11-12T09:08:41.235Z,89.611816
2018-11-12T09:12:09.213Z,89.819336
2018-11-12T09:15:38.192Z,89.819336
2018-11-12T09:19:06.131Z,89.776611
2018-11-12T09:22:34.107Z,89.263916
2018-11-12T09:26:02.065Z,89.471436
2018-11-12T09:29:30.031Z,89.471436
2018-11-12T09:32:58.987Z,89.367676
2018-11-12T09:36:26.972Z,89.263916
2018-11-12T09:43:22.883Z,89.471436
2018-11-12T09:46:50.860Z,89.575195
2018-11-12T09:50:18.839Z,89.880371
2018-11-12T09:53:46.912Z,90.081787
2018-11-12T09:57:14.769Z,89.978027
2018-11-12T10:00:42.931Z,89.978027
2018-11-12T10:04:11.252Z,89.978027
2018-11-12T10:07:42.449Z,90.185547
2018-11-12T10:11:11.321Z,90.185547
2018-11-12T10:14:42.993Z,90.490723
2018-11-12T10:21:38.448Z,90.429688
2018-11-12T10:25:06.397Z,90.429688
2018-11-12T10:28:34.360Z,90.740967
2018-11-12T10:32:03.318Z,90.942383
2018-11-12T10:35:31.286Z,91.247559
2018-11-12T10:38:59.252Z,91.455078
2018-11-12T10:42:27.215Z,91.656494
2018-11-12T10:45:55.189Z,91.351318
2018-11-12T10:49:23.150Z,91.516113
2018-11-12T10:52:51.116Z,91.412354
2018-11-12T10:56:19.092Z,91.516113
2018-11-12T10:59:47.084Z,91.717529
2018-11-12T11:03:15.000Z,92.169189
2018-11-12T11:06:42.972Z,92.169189
2018-11-12T11:10:10.931Z,92.06543
2018-11-12T11:13:38.930Z,92.370605
2018-11-12T11:17:07.859Z,92.578125
2018-11-12T11:20:35.844Z,92.987061
2018-11-12T11:24:03.785Z,93.188477
2018-11-12T11:27:31.758Z,92.883301
2018-11-12T11:31:00.785Z,92.987061
2018-11-12T11:34:28.683Z,93.09082
2018-11-12T11:37:58.369Z,93.188477
2018-11-12T11:41:26.340Z,93.334961
2018-11-12T11:44:54.294Z,93.395996
2018-11-12T11:48:22.260Z,93.438721
2018-11-12T11:51:50.233Z,93.438721
2018-11-12T11:55:19.185Z,93.743896
2018-11-12T11:58:47.147Z,93.951416
2018-11-12T12:02:15.168Z,94.006348
2018-11-12T12:05:43.085Z,93.908691
2018-11-12T12:09:11.172Z,93.804932
2018-11-12T12:12:39.029Z,93.804932
2018-11-12T12:16:06.991Z,93.701172
2018-11-12T12:19:35.940Z,93.701172
2018-11-12T12:23:03.907Z,93.804932
2018-11-12T12:26:32.877Z,94.006348
2018-11-12T12:30:00.816Z,94.152832
2018-11-12T12:33:28.802Z,94.317627
2018-11-12T12:36:56.783Z,94.519043
2018-11-12T12:40:24.756Z,94.665527
2018-11-12T12:43:52.705Z,94.665527
2018-11-12T12:47:20.678Z,94.769287
2018-11-12T12:50:48.658Z,94.665527
2018-11-12T12:54:17.419Z,94.464111
2018-11-12T12:57:47.465Z,94.256592
2018-11-12T13:01:17.440Z,94.360352
2018-11-12T13:04:46.440Z,94.561768
2018-11-12T13:08:15.216Z,94.812012
2018-11-12T13:11:43.313Z,95.019531
2018-11-12T13:15:13.438Z,95.281982
2018-11-12T13:18:41.323Z,94.970703
2018-11-12T13:22:16.750Z,94.970703
2018-11-12T13:25:46.866Z,94.769287
2018-11-12T13:29:14.976Z,94.561768
2018-11-12T13:32:42.947Z,94.464111
2018-11-12T13:36:10.920Z,94.152832
2018-11-12T13:39:38.876Z,93.597412
2018-11-12T13:43:09.409Z,90.014648
2018-11-12T13:46:37.453Z,90.203857
2018-11-12T13:50:05.379Z,90.203857
2018-11-12T13:53:36.315Z,90.203857
2018-11-12T13:57:04.249Z,90.698242
2018-11-12T14:00:32.320Z,91.204834
2018-11-12T14:04:01.378Z,91.96167
2018-11-12T14:07:30.198Z,92.169189
2018-11-12T14:10:58.253Z,92.578125
2018-11-12T14:14:27.029Z,92.51709
2018-11-12T14:17:56.087Z,92.62085
2018-11-12T14:21:35.462Z,92.828369
2018-11-12T14:25:04.420Z,93.377686
2018-11-12T14:28:35.490Z,93.688965
2018-11-12T14:32:03.283Z,93.786621
2018-11-12T14:35:34.983Z,94.140625
2018-11-12T14:39:08.572Z,94.036865
2018-11-12T14:42:40.535Z,94.036865
2018-11-12T14:46:11.322Z,94.244385
2018-11-12T14:49:41.717Z,94.140625
2018-11-12T14:53:09.856Z,94.244385
2018-11-12T14:56:38.035Z,94.488525
2018-11-12T15:00:06.247Z,94.488525
2018-11-12T15:03:34.506Z,94.488525
2018-11-12T15:07:10.308Z,94.592285
2018-11-12T15:10:41.957Z,94.799805
2018-11-12T15:14:18.295Z,94.897461
2018-11-12T15:17:46.626Z,95.20874
2018-11-12T15:21:23.861Z,95.3125
2018-11-12T15:24:52.995Z,95.3125
2018-11-12T15:28:28.201Z,95.410156
2018-11-12T15:31:57.288Z,95.410156
2018-11-12T15:35:25.446Z,95.3125
2018-11-12T15:38:54.658Z,95.20874
2018-11-12T15:42:22.653Z,95.20874
2018-11-12T15:45:50.655Z,95.10498
2018-11-12T15:49:19.765Z,95.10498
2018-11-12T15:52:47.815Z,95.001221
2018-11-12T15:56:15.740Z,95.10498
2018-11-12T15:59:43.713Z,95.10498
2018-11-12T16:03:11.661Z,95.10498
2018-11-12T16:06:39.746Z,95.001221
2018-11-12T16:10:07.599Z,95.001221
2018-11-12T16:13:36.534Z,95.10498
2018-11-12T16:17:04.508Z,95.001221
2018-11-12T16:20:32.474Z,95.001221
2018-11-12T16:24:00.433Z,95.10498
2018-11-12T16:27:28.405Z,95.001221
2018-11-12T16:30:56.377Z,95.001221
2018-11-12T16:34:24.328Z,95.10498
2018-11-12T16:37:53.294Z,94.897461
2018-11-12T16:41:21.257Z,94.799805
2018-11-12T16:44:49.215Z,94.799805
2018-11-12T16:48:17.206Z,94.696045
2018-11-12T16:51:46.986Z,94.696045
2018-11-12T16:55:15.945Z,94.592285
2018-11-12T16:58:44.895Z,94.696045
2018-11-12T17:02:12.867Z,94.592285
2018-11-12T17:05:40.831Z,94.592285
2018-11-12T17:09:08.795Z,94.244385
2018-11-12T17:12:36.804Z,94.244385
2018-11-12T17:16:04.774Z,94.140625
2018-11-12T17:19:32.731Z,94.140625
2018-11-12T17:23:00.824Z,93.835449
2018-11-12T17:26:29.773Z,93.835449
2018-11-12T17:29:57.724Z,93.731689
2018-11-12T17:33:25.703Z,93.835449
2018-11-12T17:36:53.704Z,93.835449
2018-11-12T17:40:21.718Z,93.426514
2018-11-12T17:43:49.672Z,93.52417
2018-11-12T17:47:17.637Z,93.322754
2018-11-12T17:50:45.854Z,93.07251
2018-11-12T17:54:13.816Z,92.871094
2018-11-12T17:57:41.778Z,92.462158
2018-11-12T18:01:09.748Z,91.845703
2018-11-12T18:04:37.720Z,91.601562
2018-11-12T18:08:05.742Z,91.088867
2018-11-12T18:11:33.652Z,90.679932
2018-11-12T18:15:01.612Z,90.124512
2018-11-12T18:18:29.605Z,89.715576
2018-11-12T18:21:57.596Z,89.819336
2018-11-12T18:25:25.562Z,89.611816
2018-11-12T18:28:53.515Z,89.16626
2018-11-12T18:32:22.479Z,88.446045
2018-11-12T18:35:50.460Z,88.140869
2018-11-12T18:39:18.428Z,87.634277
2018-11-12T18:42:46.415Z,88.000488
2018-11-12T18:46:14.388Z,87.182617
2018-11-12T18:49:42.341Z,86.877441
2018-11-12T18:53:11.322Z,86.572266
2018-11-12T18:56:39.434Z,86.425781
2018-11-12T19:00:07.384Z,85.81543
2018-11-12T19:03:35.351Z,85.302734
2018-11-12T19:07:03.323Z,85.205078
2018-11-12T19:10:31.301Z,85.614014
2018-11-12T19:14:00.267Z,85.101318
2018-11-12T19:17:28.949Z,84.552002
2018-11-12T19:20:56.929Z,84.655762
2018-11-12T19:24:24.872Z,83.94165
2018-11-12T19:27:53.842Z,83.94165
2018-11-12T19:31:21.808Z,83.392334
2018-11-12T19:34:49.774Z,83.392334
2018-11-12T19:38:17.732Z,82.775879
2018-11-12T19:41:46.685Z,82.678223
2018-11-12T19:45:18.922Z,82.269287
2018-11-12T19:53:34.305Z,82.983398
2018-11-12T19:57:02.349Z,82.775879
2018-11-12T20:00:30.446Z,82.678223
2018-11-12T20:03:59.143Z,83.02002
2018-11-12T20:07:27.136Z,83.227539
2018-11-12T20:10:56.039Z,83.325195
2018-11-12T20:14:24.004Z,83.630371
2018-11-12T20:17:53.111Z,83.837891
2018-11-12T20:21:21.067Z,84.039307
2018-11-12T20:24:49.958Z,83.94165
2018-11-12T20:28:17.929Z,84.143066
2018-11-12T20:31:45.908Z,84.039307
2018-11-12T20:35:13.882Z,84.143066
2018-11-12T20:38:43.197Z,84.246826
2018-11-12T20:42:11.074Z,83.94165
2018-11-12T20:45:39.067Z,83.837891
2018-11-12T20:49:08.043Z,83.837891
2018-11-12T20:52:36.048Z,83.69751
2018-11-12T20:56:03.981Z,83.795166
2018-11-12T20:59:31.932Z,83.59375
2018-11-12T21:02:59.982Z,83.59375
2018-11-12T21:06:27.953Z,83.795166
2018-11-12T21:09:55.914Z,84.106445
2018-11-12T21:13:24.879Z,84.106445
